Time;durP1;ratioP1;P1;durP2;ratioP2;P2;SDS_P1;SDS_P2;PMS_P1;PMS_P2;Temp;Humidity;BMP_temperature;BMP_pressure;BME280_temperature;BME280_humidity;BME280_pressure;Samples;Min_cycle;Max_cycle;Signal;HPM_P1;HPM_P2
2023/09/01 00:00:35;;;;;;;2.10;0.70;;;20.80;72.80;;;;;;5092602;28;20044;-60
2023/09/01 00:03:00;;;;;;;2.70;0.63;;;20.80;73.40;;;;;;5091092;28;20380;-60
2023/09/01 00:05:26;;;;;;;1.63;0.70;;;20.80;72.80;;;;;;5091117;28;20123;-60
2023/09/01 00:07:51;;;;;;;1.95;0.63;;;20.80;72.80;;;;;;5092046;28;20503;-60
2023/09/01 00:10:17;;;;;;;2.33;0.65;;;20.70;72.70;;;;;;5092327;28;20085;-60
2023/09/01 00:12:43;;;;;;;2.45;0.73;;;20.80;72.70;;;;;;5089992;28;20043;-60
2023/09/01 00:15:09;;;;;;;1.42;0.70;;;20.80;72.80;;;;;;5092810;28;20083;-61
2023/09/01 00:17:35;;;;;;;2.15;0.70;;;20.70;72.70;;;;;;5090656;28;20054;-60
2023/09/01 00:20:00;;;;;;;2.08;0.65;;;20.80;72.70;;;;;;5090554;28;20048;-60
2023/09/01 00:22:26;;;;;;;3.20;0.73;;;20.70;72.60;;;;;;5092223;28;20048;-60
2023/09/01 00:24:51;;;;;;;3.65;0.77;;;20.70;72.60;;;;;;5092022;28;20127;-61
2023/09/01 00:27:17;;;;;;;1.92;0.90;;;20.70;72.60;;;;;;5091689;28;20044;-61
2023/09/01 00:29:42;;;;;;;1.77;0.80;;;20.70;72.70;;;;;;5091890;28;20047;-60
2023/09/01 00:32:08;;;;;;;2.63;0.90;;;20.70;72.60;;;;;;5090771;28;20165;-61
2023/09/01 00:34:33;;;;;;;2.83;0.70;;;20.70;72.60;;;;;;5090321;28;20052;-60
2023/09/01 00:36:59;;;;;;;2.33;0.82;;;20.70;72.60;;;;;;5091728;28;20100;-61
2023/09/01 00:39:25;;;;;;;2.67;0.82;;;20.70;72.60;;;;;;5090689;28;20048;-61
2023/09/01 00:41:50;;;;;;;2.35;0.80;;;20.70;72.60;;;;;;5091099;28;20048;-60
2023/09/01 00:44:16;;;;;;;1.95;0.90;;;20.70;72.60;;;;;;5079862;28;20058;-60
2023/09/01 00:46:43;;;;;;;2.63;0.70;;;20.70;72.60;;;;;;5091947;28;20036;-61
2023/09/01 00:49:09;;;;;;;1.58;0.77;;;20.70;72.50;;;;;;5091713;28;20067;-60
2023/09/01 00:51:35;;;;;;;2.47;0.68;;;20.60;72.50;;;;;;5084930;28;20045;-61
2023/09/01 00:54:02;;;;;;;1.55;0.80;;;20.70;72.60;;;;;;5087188;28;20115;-61
2023/09/01 00:56:27;;;;;;;1.65;0.60;;;20.60;72.50;;;;;;5090822;28;20492;-61
2023/09/01 00:58:53;;;;;;;1.40;0.65;;;20.60;72.50;;;;;;5091742;28;20046;-60
2023/09/01 01:01:19;;;;;;;2.05;0.70;;;20.70;72.50;;;;;;5091316;28;20159;-61
2023/09/01 01:03:44;;;;;;;2.55;0.70;;;20.60;72.50;;;;;;5089971;28;20040;-61
2023/09/01 01:06:23;;;;;;;2.80;1.00;;;20.60;72.50;;;;;;5090032;28;20044;-61
2023/09/01 01:09:13;;;;;;;1.73;0.70;;;20.60;72.50;;;;;;5091182;28;20043;-61
2023/09/01 01:12:05;;;;;;;3.40;1.13;;;20.60;72.40;;;;;;5090796;28;20044;-61
2023/09/01 01:14:41;;;;;;;2.10;0.93;;;20.60;72.40;;;;;;5090610;28;20059;-60
2023/09/01 01:17:06;;;;;;;2.65;0.90;;;20.60;72.40;;;;;;5073032;28;20439;-61
2023/09/01 01:19:45;;;;;;;2.00;0.80;;;20.60;72.40;;;;;;5078362;28;20507;-61
2023/09/01 01:22:11;;;;;;;1.48;0.70;;;20.60;72.40;;;;;;5070939;28;20044;-61
2023/09/01 01:24:36;;;;;;;1.92;0.70;;;20.60;72.40;;;;;;5089930;28;20189;-60
2023/09/01 01:27:02;;;;;;;1.50;0.73;;;20.60;72.40;;;;;;5091979;28;20044;-60
2023/09/01 01:29:28;;;;;;;2.65;0.80;;;20.60;72.40;;;;;;5079005;28;20170;-61
2023/09/01 01:31:53;;;;;;;2.22;0.77;;;20.60;72.40;;;;;;5084573;28;20052;-61
2023/09/01 01:34:34;;;;;;;2.40;0.77;;;20.60;72.40;;;;;;5090004;28;20051;-61
2023/09/01 01:37:01;;;;;;;3.00;0.85;;;20.60;72.40;;;;;;5090921;28;20084;-61
2023/09/01 01:39:27;;;;;;;2.15;0.70;;;20.60;72.40;;;;;;5083841;28;20044;-61
2023/09/01 01:42:02;;;;;;;2.17;1.00;;;20.60;72.40;;;;;;5087751;28;20087;-60
2023/09/01 01:44:30;;;;;;;1.80;0.60;;;20.60;72.40;;;;;;5092884;28;20048;-60
2023/09/01 01:46:56;;;;;;;1.75;0.90;;;20.50;72.30;;;;;;5095024;28;20391;-61
2023/09/01 01:49:22;;;;;;;2.58;1.00;;;20.60;72.40;;;;;;5076831;28;20036;-60
2023/09/01 01:51:47;;;;;;;2.55;0.90;;;20.60;72.40;;;;;;5092412;28;20403;-60
2023/09/01 01:54:13;;;;;;;1.80;0.77;;;20.60;72.40;;;;;;5094850;28;20127;-61
2023/09/01 01:56:38;;;;;;;2.88;0.80;;;20.60;72.40;;;;;;5094820;28;20047;-61
2023/09/01 01:59:04;;;;;;;1.63;0.80;;;20.50;72.40;;;;;;5094251;28;20058;-61
2023/09/01 02:01:31;;;;;;;1.83;0.65;;;20.50;72.30;;;;;;5094922;28;20394;-61
2023/09/01 02:03:57;;;;;;;2.85;0.80;;;20.50;72.30;;;;;;5094344;28;20476;-61
2023/09/01 02:06:22;;;;;;;2.80;0.90;;;20.50;72.30;;;;;;5093485;28;20112;-60
2023/09/01 02:08:48;;;;;;;1.88;0.75;;;20.50;72.30;;;;;;5077549;28;20373;-61
2023/09/01 02:11:14;;;;;;;1.70;0.70;;;20.50;72.30;;;;;;5094089;28;20075;-60
2023/09/01 02:13:40;;;;;;;2.08;0.88;;;20.50;72.30;;;;;;5093166;28;20055;-61
2023/09/01 02:16:05;;;;;;;1.90;0.70;;;20.50;72.30;;;;;;5093507;28;20044;-61
2023/09/01 02:18:32;;;;;;;2.42;0.82;;;20.50;72.30;;;;;;5093202;28;20047;-61
2023/09/01 02:20:57;;;;;;;3.10;1.23;;;20.50;72.30;;;;;;5093852;28;20043;-61
2023/09/01 02:23:24;;;;;;;2.42;0.98;;;20.50;72.30;;;;;;5094603;28;20131;-60
2023/09/01 02:25:49;;;;;;;1.25;0.63;;;20.50;72.30;;;;;;5093307;28;20051;-60
2023/09/01 02:28:15;;;;;;;1.75;0.60;;;20.50;72.40;;;;;;5094601;28;20066;-60
2023/09/01 02:30:40;;;;;;;1.23;0.60;;;20.50;72.30;;;;;;5093639;28;20082;-60
2023/09/01 02:33:06;;;;;;;1.63;0.70;;;20.50;72.30;;;;;;5093883;28;20043;-61
2023/09/01 02:35:32;;;;;;;2.40;0.80;;;20.50;72.30;;;;;;5093888;28;20059;-60
2023/09/01 02:37:58;;;;;;;2.25;0.82;;;20.50;72.30;;;;;;5092756;28;20044;-61
2023/09/01 02:40:24;;;;;;;1.77;0.75;;;20.50;72.30;;;;;;5093278;28;20047;-60
2023/09/01 02:42:51;;;;;;;1.95;0.80;;;20.50;72.30;;;;;;5093425;28;20130;-60
2023/09/01 02:45:18;;;;;;;1.63;0.80;;;20.50;72.30;;;;;;5094196;28;20040;-60
2023/09/01 02:47:43;;;;;;;2.05;0.77;;;20.50;72.30;;;;;;5083719;28;20077;-61
2023/09/01 02:50:12;;;;;;;2.20;0.80;;;20.50;72.30;;;;;;5083293;28;20075;-61
2023/09/01 02:52:38;;;;;;;2.40;0.90;;;20.50;72.30;;;;;;5093812;28;20040;-61
2023/09/01 02:55:06;;;;;;;1.67;0.65;;;20.50;72.30;;;;;;5092791;28;20486;-61
2023/09/01 02:57:32;;;;;;;1.45;0.68;;;20.40;72.20;;;;;;5094034;28;20467;-61
2023/09/01 02:59:57;;;;;;;2.22;0.70;;;20.40;72.30;;;;;;5093351;28;20044;-61
2023/09/01 03:02:23;;;;;;;1.30;0.60;;;20.40;72.20;;;;;;5091942;28;20073;-61
2023/09/01 03:04:49;;;;;;;1.63;0.73;;;20.40;72.20;;;;;;5092785;28;20092;-61
2023/09/01 03:07:15;;;;;;;1.67;0.70;;;20.40;72.30;;;;;;5087392;28;20123;-62
2023/09/01 03:09:44;;;;;;;1.10;0.65;;;20.40;72.20;;;;;;5092550;28;20036;-61
2023/09/01 03:12:10;;;;;;;1.30;0.70;;;20.40;72.20;;;;;;5093730;28;20033;-61
2023/09/01 03:14:36;;;;;;;2.10;0.85;;;20.40;72.20;;;;;;5093108;28;20043;-61
2023/09/01 03:17:01;;;;;;;1.45;0.80;;;20.40;72.30;;;;;;5092947;28;20036;-61
2023/09/01 03:19:27;;;;;;;1.92;0.80;;;20.40;72.20;;;;;;5091506;28;20040;-61
2023/09/01 03:21:53;;;;;;;1.27;0.70;;;20.40;72.20;;;;;;5091982;28;20603;-61
2023/09/01 03:24:18;;;;;;;2.17;0.70;;;20.40;72.20;;;;;;5093419;28;20115;-61
2023/09/01 03:26:44;;;;;;;1.30;0.60;;;20.40;72.20;;;;;;5093201;28;20372;-61
2023/09/01 03:29:09;;;;;;;2.17;0.98;;;20.40;72.20;;;;;;5092218;28;20097;-61
2023/09/01 03:31:35;;;;;;;1.92;0.70;;;20.40;72.20;;;;;;5091791;28;20044;-61
2023/09/01 03:34:00;;;;;;;2.42;0.70;;;20.40;72.20;;;;;;5092999;28;20378;-62
2023/09/01 03:36:26;;;;;;;1.67;0.60;;;20.40;72.20;;;;;;5088251;28;20090;-61
2023/09/01 03:38:54;;;;;;;1.95;0.60;;;20.40;72.20;;;;;;5087563;28;20105;-61
2023/09/01 03:41:20;;;;;;;2.05;0.93;;;20.40;72.20;;;;;;5092880;28;20069;-61
2023/09/01 03:43:48;;;;;;;1.30;0.70;;;20.30;72.20;;;;;;5091840;28;20032;-61
2023/09/01 03:46:13;;;;;;;;;;;20.40;72.20;;;;;;5091746;28;20048;-61
2023/09/01 03:48:39;;;;;;;2.08;0.75;;;20.40;72.10;;;;;;5092421;28;19938;-61
2023/09/01 03:51:13;;;;;;;1.25;0.70;;;20.30;72.20;;;;;;5091614;28;20036;-61
2023/09/01 03:53:39;;;;;;;1.67;0.70;;;20.30;72.10;;;;;;5092526;28;20040;-61
2023/09/01 03:56:08;;;;;;;2.45;0.70;;;20.30;72.20;;;;;;5092790;28;20047;-61
2023/09/01 03:58:34;;;;;;;1.52;0.80;;;20.30;72.20;;;;;;5090543;28;20361;-61
2023/09/01 04:01:00;;;;;;;3.00;0.85;;;20.30;72.10;;;;;;5090371;28;20101;-61
2023/09/01 04:03:25;;;;;;;1.45;0.75;;;20.30;72.20;;;;;;5077415;28;20028;-61
2023/09/01 04:05:57;;;;;;;2.55;0.80;;;20.30;72.10;;;;;;5089693;28;20077;-61
2023/09/01 04:08:23;;;;;;;1.98;0.80;;;20.30;72.20;;;;;;5092266;28;20048;-61
2023/09/01 04:10:48;;;;;;;2.72;0.60;;;20.30;72.10;;;;;;5091912;28;20124;-61
2023/09/01 04:13:14;;;;;;;2.75;0.80;;;20.30;72.20;;;;;;5091816;28;20066;-61
2023/09/01 04:15:40;;;;;;;2.88;0.77;;;20.30;72.20;;;;;;5091847;28;20063;-61
2023/09/01 04:18:05;;;;;;;2.20;0.82;;;20.30;72.10;;;;;;5091587;28;20068;-61
2023/09/01 04:20:31;;;;;;;2.10;0.80;;;20.30;72.20;;;;;;5092066;28;20044;-61
2023/09/01 04:22:56;;;;;;;1.92;1.00;;;20.30;72.10;;;;;;5092099;28;20468;-61
2023/09/01 04:25:22;;;;;;;1.80;0.88;;;20.30;72.20;;;;;;5091016;28;20051;-61
2023/09/01 04:27:47;;;;;;;2.00;0.82;;;20.30;72.20;;;;;;5091829;28;20490;-61
2023/09/01 04:30:13;;;;;;;1.75;0.75;;;20.30;72.20;;;;;;5092336;28;20135;-61
2023/09/01 04:32:40;;;;;;;2.55;0.75;;;20.30;72.10;;;;;;5090077;28;20051;-61
2023/09/01 04:35:07;;;;;;;1.53;0.70;;;20.30;72.20;;;;;;5092451;28;20105;-61
2023/09/01 04:37:32;;;;;;;2.45;0.77;;;20.30;72.20;;;;;;5081196;28;20094;-61
2023/09/01 04:39:58;;;;;;;1.23;0.70;;;20.30;72.20;;;;;;5090995;28;20079;-61
2023/09/01 04:42:23;;;;;;;1.77;0.70;;;20.30;72.10;;;;;;5092403;28;20067;-60
2023/09/01 04:44:49;;;;;;;1.23;0.70;;;20.30;72.20;;;;;;5090341;28;20125;-61
2023/09/01 04:47:14;;;;;;;1.77;0.60;;;20.20;72.10;;;;;;5090059;28;20036;-61
2023/09/01 04:49:40;;;;;;;1.35;0.70;;;20.30;72.10;;;;;;5091004;28;20047;-61
2023/09/01 04:52:06;;;;;;;1.17;0.70;;;20.30;72.70;;;;;;5091933;28;20395;-61
2023/09/01 04:54:31;;;;;;;1.80;0.85;;;20.20;72.10;;;;;;5090198;28;20044;-61
2023/09/01 04:56:57;;;;;;;1.88;0.80;;;20.20;72.10;;;;;;5091691;28;20024;-61
2023/09/01 04:59:22;;;;;;;1.10;0.63;;;20.20;72.10;;;;;;5092156;28;20396;-61
2023/09/01 05:01:49;;;;;;;1.40;0.70;;;20.20;72.10;;;;;;5089130;28;20055;-61
2023/09/01 05:04:15;;;;;;;1.85;0.90;;;20.20;72.10;;;;;;5092053;28;20044;-61
2023/09/01 05:06:41;;;;;;;1.25;0.60;;;20.20;72.10;;;;;;5091605;28;20075;-61
2023/09/01 05:09:06;;;;;;;1.00;0.60;;;20.20;72.10;;;;;;5091315;28;20169;-61
2023/09/01 05:11:32;;;;;;;2.60;0.80;;;20.20;72.00;;;;;;5092065;28;20040;-61
2023/09/01 05:13:57;;;;;;;1.30;0.70;;;20.20;72.10;;;;;;5093659;28;20047;-61
2023/09/01 05:16:23;;;;;;;1.83;0.70;;;20.20;72.10;;;;;;5093853;28;20047;-61
2023/09/01 05:18:48;;;;;;;1.67;0.60;;;20.20;72.10;;;;;;5095572;28;20055;-61
2023/09/01 05:21:14;;;;;;;1.83;0.60;;;20.20;72.10;;;;;;5093007;28;20051;-61
2023/09/01 05:23:40;;;;;;;1.40;0.60;;;20.20;72.10;;;;;;5095383;28;20467;-61
2023/09/01 05:26:05;;;;;;;1.60;0.60;;;20.20;72.10;;;;;;5095861;28;20089;-61
2023/09/01 05:28:31;;;;;;;2.53;0.88;;;20.20;72.10;;;;;;5094921;28;20044;-61
2023/09/01 05:30:57;;;;;;;1.67;0.80;;;20.20;72.10;;;;;;5095459;28;20040;-61
2023/09/01 05:33:22;;;;;;;1.92;0.70;;;20.20;72.10;;;;;;5095801;28;20040;-61
2023/09/01 05:35:48;;;;;;;1.40;0.70;;;20.20;72.10;;;;;;5093376;28;20063;-61
2023/09/01 05:38:14;;;;;;;1.25;0.60;;;20.20;72.10;;;;;;5095318;28;20048;-61
2023/09/01 05:40:40;;;;;;;1.50;0.60;;;20.20;72.10;;;;;;5095112;28;20058;-61
2023/09/01 05:43:05;;;;;;;1.75;0.75;;;20.20;72.10;;;;;;5094593;28;20040;-61
2023/09/01 05:45:31;;;;;;;0.93;0.50;;;20.20;72.10;;;;;;5095304;28;20040;-61
2023/09/01 05:47:57;;;;;;;3.22;0.90;;;20.20;72.10;;;;;;5094448;28;20091;-61
2023/09/01 05:50:22;;;;;;;1.30;0.60;;;20.20;72.10;;;;;;5093714;28;20043;-61
2023/09/01 05:52:48;;;;;;;1.15;0.50;;;20.20;72.10;;;;;;5094846;28;20044;-61
2023/09/01 05:55:13;;;;;;;1.73;0.50;;;20.20;72.10;;;;;;5094941;28;20050;-61
2023/09/01 05:57:40;;;;;;;1.88;0.95;;;20.20;72.10;;;;;;5092256;28;20415;-61
2023/09/01 06:00:07;;;;;;;1.48;0.70;;;20.10;72.10;;;;;;5094152;28;20044;-61
2023/09/01 06:02:32;;;;;;;1.75;0.70;;;20.10;72.10;;;;;;5095304;28;20032;-61
2023/09/01 06:04:58;;;;;;;0.93;0.60;;;20.20;72.10;;;;;;5093549;28;20032;-61
2023/09/01 06:07:23;;;;;;;1.70;0.95;;;20.20;72.10;;;;;;5093131;28;20044;-61
2023/09/01 06:09:49;;;;;;;1.35;0.70;;;20.20;72.20;;;;;;5093409;28;20051;-61
2023/09/01 06:12:15;;;;;;;1.35;0.82;;;20.20;72.10;;;;;;5092117;28;20395;-61
2023/09/01 06:14:41;;;;;;;1.60;0.80;;;20.20;72.10;;;;;;5094349;28;20121;-61
2023/09/01 06:17:06;;;;;;;1.65;0.70;;;20.20;72.10;;;;;;5094486;28;20123;-61
2023/09/01 06:19:32;;;;;;;2.90;0.60;;;20.20;72.10;;;;;;5093560;28;20555;-61
2023/09/01 06:21:57;;;;;;;2.15;0.70;;;20.10;72.20;;;;;;5093874;28;20051;-61
2023/09/01 06:24:23;;;;;;;1.38;0.63;;;20.10;72.10;;;;;;5094153;28;20028;-60
2023/09/01 06:26:49;;;;;;;1.48;0.60;;;20.10;72.10;;;;;;5093443;28;20036;-61
2023/09/01 06:29:14;;;;;;;1.00;0.57;;;20.10;72.10;;;;;;5094703;28;20127;-61
2023/09/01 06:31:40;;;;;;;1.30;0.70;;;20.10;72.10;;;;;;5093312;28;20072;-61
2023/09/01 06:34:05;;;;;;;1.45;0.50;;;20.20;72.20;;;;;;5094422;28;20047;-62
2023/09/01 06:36:31;;;;;;;1.52;0.70;;;20.10;72.20;;;;;;5084483;28;20048;-60
2023/09/01 06:38:57;;;;;;;6.70;1.20;;;20.10;72.10;;;;;;5093211;28;20491;-59
2023/09/01 06:41:22;;;;;;;2.33;0.90;;;20.20;72.20;;;;;;5093953;28;20059;-60
2023/09/01 06:43:48;;;;;;;5.88;1.27;;;20.20;72.30;;;;;;5093850;28;20044;-61
2023/09/01 06:46:14;;;;;;;6.07;1.20;;;20.20;72.20;;;;;;5092874;28;20063;-61
2023/09/01 06:48:40;;;;;;;5.70;1.30;;;20.20;72.20;;;;;;5093302;28;20126;-60
2023/09/01 06:51:06;;;;;;;4.10;1.20;;;20.20;72.40;;;;;;5093958;28;20043;-61
2023/09/01 06:53:33;;;;;;;5.00;1.20;;;20.20;72.40;;;;;;5093462;28;20143;-61
2023/09/01 06:55:58;;;;;;;2.20;0.80;;;20.20;72.50;;;;;;5093786;28;20051;-61
2023/09/01 06:58:24;;;;;;;3.20;1.00;;;20.30;72.60;;;;;;5093564;28;20127;-61
2023/09/01 07:00:51;;;;;;;5.35;1.10;;;20.20;72.60;;;;;;5092603;28;20052;-61
2023/09/01 07:03:17;;;;;;;5.00;1.20;;;20.30;72.70;;;;;;5092359;28;20080;-60
2023/09/01 07:05:43;;;;;;;5.60;1.05;;;20.30;72.70;;;;;;5093136;28;20086;-61
2023/09/01 07:08:12;;;;;;;4.88;1.08;;;20.30;72.70;;;;;;5093144;28;20036;-61
2023/09/01 07:10:37;;;;;;;2.90;0.93;;;20.30;72.60;;;;;;5091929;28;20546;-61
2023/09/01 07:13:03;;;;;;;4.45;1.40;;;20.30;72.70;;;;;;5092610;28;20128;-61
2023/09/01 07:15:28;;;;;;;3.90;0.95;;;20.30;72.70;;;;;;5093046;28;20383;-60
2023/09/01 07:17:54;;;;;;;2.97;1.20;;;20.40;72.70;;;;;;5091862;28;20085;-60
2023/09/01 07:20:20;;;;;;;7.90;1.33;;;20.40;72.80;;;;;;5093162;28;20040;-61
2023/09/01 07:22:45;;;;;;;4.18;1.27;;;20.40;72.80;;;;;;5092309;28;20067;-61
2023/09/01 07:25:13;;;;;;;3.28;1.45;;;20.40;72.80;;;;;;5091832;28;20040;-61
2023/09/01 07:27:38;;;;;;;2.93;1.20;;;20.40;72.80;;;;;;5091441;28;20047;-61
2023/09/01 07:30:05;;;;;;;4.88;1.17;;;20.40;72.80;;;;;;5092364;28;20305;-61
2023/09/01 07:32:31;;;;;;;5.88;1.20;;;20.40;72.80;;;;;;5093344;28;20048;-61
2023/09/01 07:34:58;;;;;;;3.55;1.30;;;20.50;72.80;;;;;;5091546;28;20040;-61
2023/09/01 07:37:24;;;;;;;3.75;1.27;;;20.50;72.80;;;;;;5090656;28;20410;-61
2023/09/01 07:39:50;;;;;;;3.05;1.08;;;20.50;72.80;;;;;;5092739;28;20533;-60
2023/09/01 07:42:15;;;;;;;4.68;1.40;;;20.50;72.80;;;;;;5079242;28;20066;-61
2023/09/01 07:44:41;;;;;;;3.38;1.08;;;20.50;72.80;;;;;;5080468;28;20076;-61
2023/09/01 07:47:06;;;;;;;6.15;1.50;;;20.50;72.70;;;;;;5093394;28;20047;-60
2023/09/01 07:49:32;;;;;;;3.10;1.33;;;20.50;72.70;;;;;;5090639;28;20510;-60
2023/09/01 07:51:58;;;;;;;5.03;1.60;;;20.50;72.70;;;;;;5092492;28;20043;-60
2023/09/01 07:54:23;;;;;;;4.05;1.40;;;20.50;72.70;;;;;;5083641;28;20115;-60
2023/09/01 07:56:49;;;;;;;7.97;1.75;;;20.50;72.80;;;;;;5072014;28;20044;-60
2023/09/01 07:59:14;;;;;;;6.78;1.50;;;20.50;72.80;;;;;;5073054;28;20043;-60
2023/09/01 08:01:40;;;;;;;9.80;1.45;;;20.60;72.90;;;;;;5072435;28;20053;-60
2023/09/01 08:04:06;;;;;;;2.47;1.00;;;20.50;72.80;;;;;;5071965;28;20033;-60
2023/09/01 08:06:31;;;;;;;5.22;1.48;;;20.60;72.90;;;;;;5072349;28;20052;-61
2023/09/01 08:08:57;;;;;;;5.82;1.35;;;20.60;73.00;;;;;;5071619;28;20041;-61
2023/09/01 08:11:23;;;;;;;5.10;1.38;;;20.60;72.90;;;;;;5072200;28;20041;-61
2023/09/01 08:13:48;;;;;;;6.03;1.40;;;20.60;72.80;;;;;;5072697;28;20040;-61
2023/09/01 08:16:16;;;;;;;13.65;2.80;;;20.60;72.80;;;;;;5072331;28;20041;-61
2023/09/01 08:18:41;;;;;;;13.63;2.38;;;20.60;72.90;;;;;;5069704;28;20055;-61
2023/09/01 08:21:07;;;;;;;8.60;1.80;;;20.60;72.90;;;;;;5072501;28;20044;-61
2023/09/01 08:23:33;;;;;;;9.82;1.60;;;20.60;72.90;;;;;;5072476;28;20094;-61
2023/09/01 08:25:58;;;;;;;9.93;1.73;;;20.60;72.90;;;;;;5071538;28;20040;-61
2023/09/01 08:28:24;;;;;;;12.30;2.10;;;20.60;72.80;;;;;;5080349;28;20043;-60
2023/09/01 08:30:49;;;;;;;10.07;1.90;;;20.60;72.90;;;;;;5087291;28;20447;-61
2023/09/01 08:33:17;;;;;;;11.13;2.22;;;20.60;72.90;;;;;;5090153;28;20115;-60
2023/09/01 08:35:43;;;;;;;5.95;2.28;;;20.60;72.80;;;;;;5070905;28;20067;-61
2023/09/01 08:38:08;;;;;;;6.90;2.30;;;20.60;72.80;;;;;;5071633;28;20041;-60
2023/09/01 08:40:34;;;;;;;11.38;2.42;;;20.60;72.50;;;;;;5071443;28;20051;-60
2023/09/01 08:43:01;;;;;;;10.20;2.72;;;20.60;72.10;;;;;;5072413;28;20045;-60
2023/09/01 08:45:26;;;;;;;7.93;2.40;;;20.60;71.60;;;;;;5070330;28;20048;-61
2023/09/01 08:47:52;;;;;;;12.18;2.45;;;20.60;71.30;;;;;;5073773;28;20094;-60
2023/09/01 08:50:18;;;;;;;9.65;2.40;;;20.60;71.10;;;;;;5074792;28;20124;-60
2023/09/01 08:52:44;;;;;;;12.38;2.30;;;20.60;71.10;;;;;;5075122;28;20121;-61
2023/09/01 08:55:14;;;;;;;10.52;2.42;;;20.60;71.20;;;;;;5075039;28;20054;-60
2023/09/01 08:57:40;;;;;;;12.05;2.13;;;20.60;71.20;;;;;;5074690;28;20036;-60
2023/09/01 09:00:07;;;;;;;9.77;2.28;;;20.60;71.20;;;;;;5073822;28;20113;-61
2023/09/01 09:02:34;;;;;;;8.48;1.98;;;20.60;71.20;;;;;;5074117;28;20048;-62
2023/09/01 09:05:02;;;;;;;10.25;2.38;;;20.60;71.30;;;;;;5076375;28;20052;-60
2023/09/01 09:07:29;;;;;;;13.77;2.40;;;20.60;71.30;;;;;;5074999;28;20491;-61
2023/09/01 09:09:58;;;;;;;15.13;2.42;;;20.60;71.30;;;;;;5075910;28;20058;-61
2023/09/01 09:12:33;;;;;;;8.43;2.53;;;20.60;71.30;;;;;;5074804;28;20098;-61
2023/09/01 09:14:58;;;;;;;10.38;2.33;;;20.60;71.40;;;;;;5074821;28;20055;-61
2023/09/01 09:17:26;;;;;;;11.52;2.30;;;20.60;71.50;;;;;;5078197;28;20028;-60
2023/09/01 09:19:53;;;;;;;14.25;2.67;;;20.60;71.50;;;;;;5091838;28;20033;-61
2023/09/01 09:22:19;;;;;;;8.45;2.50;;;20.60;71.50;;;;;;5094533;28;20075;-60
2023/09/01 09:24:45;;;;;;;16.33;2.85;;;20.70;71.60;;;;;;5093901;28;20072;-61
2023/09/01 09:27:14;;;;;;;9.60;3.17;;;20.70;71.60;;;;;;5096100;28;20039;-61
2023/09/01 09:29:40;;;;;;;10.55;3.72;;;20.60;71.50;;;;;;5093722;28;20156;-61
2023/09/01 09:32:19;;;;;;;8.85;2.80;;;20.70;71.40;;;;;;5094837;28;20039;-61
2023/09/01 09:35:09;;;;;;;11.65;3.22;;;20.70;71.40;;;;;;5094921;28;20044;-61
2023/09/01 09:37:35;;;;;;;9.55;3.25;;;20.70;71.30;;;;;;5095376;28;20055;-61
2023/09/01 09:40:16;;;;;;;7.00;2.78;;;20.70;71.30;;;;;;5095936;28;20084;-61
2023/09/01 09:42:43;;;;;;;10.90;3.00;;;20.70;71.20;;;;;;5094555;28;20047;-61
2023/09/01 09:45:33;;;;;;;9.75;2.90;;;20.70;71.20;;;;;;5095272;28;20040;-61
2023/09/01 09:48:04;;;;;;;9.30;3.05;;;20.70;71.10;;;;;;5073722;28;20396;-61
2023/09/01 09:50:29;;;;;;;8.18;2.90;;;20.70;71.10;;;;;;5074285;28;20045;-61
2023/09/01 09:53:00;;;;;;;8.23;2.60;;;20.70;71.10;;;;;;5074886;28;20044;-61
2023/09/01 09:55:58;;;;;;;8.23;3.10;;;20.70;71.10;;;;;;5075113;28;20087;-62
2023/09/01 09:58:39;;;;;;;7.65;2.72;;;20.70;71.10;;;;;;5073360;28;20510;-62
2023/09/01 10:01:10;;;;;;;7.30;2.70;;;20.70;71.10;;;;;;5074234;28;20056;-62
2023/09/01 10:03:35;;;;;;;6.95;2.63;;;20.70;71.10;;;;;;5072667;28;20036;-61
2023/09/01 10:06:01;;;;;;;9.23;3.08;;;20.70;71.00;;;;;;5073900;28;20543;-61
2023/09/01 10:08:26;;;;;;;10.50;2.95;;;20.70;71.10;;;;;;5074010;28;20045;-61
2023/09/01 10:10:52;;;;;;;6.30;2.53;;;20.70;71.00;;;;;;5072811;28;20048;-61
2023/09/01 10:13:18;;;;;;;9.50;2.80;;;20.70;71.00;;;;;;5057358;28;20039;-61
2023/09/01 10:15:43;;;;;;;7.50;2.70;;;20.70;70.90;;;;;;5074740;28;20102;-61
2023/09/01 10:18:09;;;;;;;9.20;2.40;;;20.70;71.00;;;;;;5072142;28;20124;-61
2023/09/01 10:20:36;;;;;;;6.63;2.92;;;20.70;70.80;;;;;;5072026;28;20044;-61
2023/09/01 10:23:03;;;;;;;10.05;3.53;;;20.70;70.90;;;;;;5086520;28;20043;-61
2023/09/01 10:25:28;;;;;;;7.53;3.40;;;20.70;70.80;;;;;;5093326;28;20427;-60
2023/09/01 10:28:01;;;;;;;13.05;3.42;;;20.70;70.80;;;;;;5094238;28;20036;-60
2023/09/01 10:30:36;;;;;;;11.85;3.42;;;20.70;70.90;;;;;;5094961;28;20071;-61
2023/09/01 10:33:04;;;;;;;14.25;5.53;;;20.70;71.20;;;;;;5094491;28;20048;-61
2023/09/01 10:35:38;;;;;;;13.82;4.70;;;20.80;71.40;;;;;;5094182;28;20127;-61
2023/09/01 10:38:11;;;;;;;15.38;4.40;;;20.70;71.60;;;;;;5093879;28;20346;-61
2023/09/01 10:40:41;;;;;;;8.90;3.38;;;20.80;71.60;;;;;;5094204;28;20055;-61
2023/09/01 10:43:07;;;;;;;14.35;4.70;;;20.80;71.50;;;;;;5094461;28;20082;-61
2023/09/01 10:45:32;;;;;;;9.93;4.30;;;20.80;71.70;;;;;;5093675;28;20520;-61
2023/09/01 10:47:58;;;;;;;10.00;3.67;;;20.80;72.00;;;;;;5094358;28;20047;-61
2023/09/01 10:50:23;;;;;;;10.65;3.70;;;20.80;72.10;;;;;;5094350;28;20394;-61
2023/09/01 10:53:26;;;;;;;9.77;3.63;;;20.80;72.00;;;;;;5093245;28;20082;-61
2023/09/01 10:56:09;;;;;;;10.57;3.80;;;20.80;72.00;;;;;;5092669;28;20043;-61
2023/09/01 10:58:43;;;;;;;9.07;3.13;;;20.80;72.00;;;;;;5094111;28;20048;-61
2023/09/01 11:01:25;;;;;;;10.43;3.58;;;20.80;72.00;;;;;;5093518;28;20040;-61
2023/09/01 11:03:50;;;;;;;12.30;3.70;;;20.80;72.00;;;;;;5093857;28;20052;-61
2023/09/01 11:06:16;;;;;;;10.45;3.58;;;20.80;72.10;;;;;;5093294;28;20486;-61
2023/09/01 11:08:56;;;;;;;9.07;3.53;;;20.80;72.10;;;;;;5092559;28;20054;-61
2023/09/01 11:11:21;;;;;;;11.77;3.50;;;20.80;72.10;;;;;;5076776;28;20505;-62
2023/09/01 11:13:58;;;;;;;9.93;3.92;;;20.80;72.10;;;;;;5082872;28;20119;-62
2023/09/01 11:16:23;;;;;;;8.50;3.60;;;20.70;72.10;;;;;;5083139;28;20376;-62
2023/09/01 11:18:59;;;;;;;8.07;3.15;;;20.80;72.10;;;;;;5093338;28;20491;-62
2023/09/01 11:21:25;;;;;;;13.65;3.38;;;20.70;72.10;;;;;;5090155;28;20128;-62
2023/09/01 11:23:56;;;;;;;10.43;3.60;;;20.70;72.10;;;;;;5083427;28;20115;-61
2023/09/01 11:26:22;;;;;;;7.55;2.78;;;20.70;72.10;;;;;;5090699;28;20079;-61
2023/09/01 11:28:48;;;;;;;11.60;3.13;;;20.70;72.10;;;;;;5091722;28;20028;-62
2023/09/01 11:31:13;;;;;;;8.70;3.15;;;20.70;72.20;;;;;;5066819;28;20396;-62
2023/09/01 11:33:39;;;;;;;10.65;2.97;;;20.70;72.20;;;;;;5092873;28;20043;-62
2023/09/01 11:36:10;;;;;;;7.18;3.25;;;20.70;72.20;;;;;;5082537;28;20048;-61
2023/09/01 11:38:35;;;;;;;7.72;3.10;;;20.70;72.20;;;;;;5093608;28;20067;-61
2023/09/01 11:41:03;;;;;;;8.57;3.25;;;20.70;72.20;;;;;;5082812;28;20071;-62
2023/09/01 11:43:28;;;;;;;8.48;2.90;;;20.70;72.20;;;;;;5083486;28;20039;-61
2023/09/01 11:45:54;;;;;;;8.23;2.95;;;20.70;72.20;;;;;;5093001;28;20082;-61
2023/09/01 11:48:27;;;;;;;8.80;3.08;;;20.70;72.20;;;;;;5074169;28;20032;-62
2023/09/01 11:50:53;;;;;;;6.60;3.00;;;20.70;72.20;;;;;;5092404;28;20078;-62
2023/09/01 11:53:29;;;;;;;9.73;2.92;;;20.70;72.20;;;;;;5091965;28;20032;-61
2023/09/01 11:55:58;;;;;;;10.38;3.10;;;20.70;72.30;;;;;;5091992;28;20040;-61
2023/09/01 11:58:33;;;;;;;6.22;2.95;;;20.70;72.30;;;;;;5090824;28;20513;-62
2023/09/01 12:01:08;;;;;;;7.85;2.75;;;20.70;72.30;;;;;;5091442;28;20566;-61
2023/09/01 12:03:33;;;;;;;7.18;2.70;;;20.70;72.30;;;;;;5090366;28;20047;-61
2023/09/01 12:05:59;;;;;;;10.18;3.08;;;20.70;72.30;;;;;;5091069;28;20372;-61
2023/09/01 12:08:25;;;;;;;9.90;3.47;;;20.70;72.30;;;;;;5092143;28;20044;-62
2023/09/01 12:11:04;;;;;;;7.50;2.60;;;20.70;72.90;;;;;;5091435;28;20492;-61
2023/09/01 12:13:31;;;;;;;7.40;2.75;;;20.70;72.30;;;;;;5093020;28;20532;-62
2023/09/01 12:16:01;;;;;;;5.97;2.72;;;20.70;72.40;;;;;;5092244;28;20040;-61
2023/09/01 12:18:29;;;;;;;5.60;2.70;;;20.70;72.30;;;;;;5091068;28;20040;-61
2023/09/01 12:20:55;;;;;;;8.15;2.88;;;20.70;72.30;;;;;;5091949;28;20055;-72
2023/09/01 12:23:25;;;;;;;7.95;3.08;;;20.70;72.30;;;;;;5092063;28;20403;-55
2023/09/01 12:25:51;;;;;;;7.35;2.53;;;20.80;72.30;;;;;;5092640;28;20051;-56
2023/09/01 12:28:17;;;;;;;9.50;2.70;;;20.70;72.30;;;;;;5091618;28;20059;-56
2023/09/01 12:30:42;;;;;;;7.15;2.60;;;20.80;72.50;;;;;;5091721;28;20495;-56
2023/09/01 12:33:08;;;;;;;6.95;2.60;;;20.80;72.50;;;;;;5092732;28;20047;-55
2023/09/01 12:35:33;;;;;;;9.20;2.90;;;20.80;72.40;;;;;;5091989;28;20048;-55
2023/09/01 12:37:59;;;;;;;9.60;2.83;;;20.80;72.40;;;;;;5091701;28;20105;-56
2023/09/01 12:40:24;;;;;;;6.97;2.60;;;20.80;72.50;;;;;;5092552;28;20036;-56
2023/09/01 12:42:50;;;;;;;8.95;2.83;;;20.80;72.50;;;;;;5092415;28;20117;-55
2023/09/01 12:45:15;;;;;;;6.32;2.63;;;20.90;72.50;;;;;;5091974;28;20043;-66